Country
Station

 

Weather  for  Guymon/Guymon Municipal Airport  -  United States    United States

  
-7 °C (19 °F)
    
 
 

Current METAR for Guymon/Guymon Municipal Airport is :

KGUY 190653Z AUTO 10005KT 10SM CLR M07/M13 A3024 RMK AO2 SLP267 T10721128 $

 

This is a report for Guymon/Guymon Municipal Airport - United States.
 
The report was made 7 hours and 18 minutes ago, at 06:53 UTC .
The wind was blowing at a speed of 2.6 meters per second (5.8 miles per hour) from east (100°).
 
The temperature was -7 °C (19 °F), with a dew-point at -13 °C (9 °F).
The temperature felt like -11 °C (11 °F).
 
The atmospheric pressure was 1024 hPa (30.24 inHg).
The relative humidity was 62.1%.
 
The sky was clear.
 
The overall visibility was 16.1 kilometers (10.0 miles).
 

 
 
 
 

Country :   A   B   C   D   E   F   G   H   I   J   K   L   M   N   O   P   Q   R   S   T   U   V   W   Y   Z

 

Site Info  |  Disclaimer  |  Credits  |  Privacy
Contact us  |  Add to favorites
© 2013-2019 METARs - All rights reserved